createdAt,value
2023-02-23T00:01:55.737Z,12.40
2023-02-23T00:04:23.666Z,11.38
2023-02-23T00:06:53.827Z,12.20
2023-02-23T00:09:23.991Z,11.80
2023-02-23T00:11:56.568Z,11.80
2023-02-23T00:14:31.047Z,11.27
2023-02-23T00:17:01.169Z,12.10
2023-02-23T00:19:27.875Z,11.40
2023-02-23T00:21:54.893Z,11.52
2023-02-23T00:24:22.124Z,12.02
2023-02-23T00:26:51.782Z,11.55
2023-02-23T00:29:23.581Z,11.32
2023-02-23T00:31:56.029Z,12.80
2023-02-23T00:34:25.006Z,11.93
2023-02-23T00:36:55.052Z,11.20
2023-02-23T00:39:29.354Z,11.98
2023-02-23T00:41:57.131Z,12.60
2023-02-23T00:44:25.009Z,12.98
2023-02-23T00:46:52.618Z,10.98
2023-02-23T00:49:21.958Z,11.25
2023-02-23T00:51:49.460Z,11.77
2023-02-23T00:54:19.829Z,12.25
2023-02-23T00:56:50.192Z,12.38
2023-02-23T00:59:17.327Z,11.50
2023-02-23T01:01:45.000Z,12.05
2023-02-23T01:04:12.465Z,11.13
2023-02-23T01:06:40.962Z,12.02
2023-02-23T01:09:09.399Z,10.93
2023-02-23T01:11:36.596Z,11.18
2023-02-23T01:14:04.067Z,11.50
2023-02-23T01:16:32.833Z,12.45
2023-02-23T01:19:01.248Z,12.57
2023-02-23T01:21:30.462Z,12.38
2023-02-23T01:23:57.893Z,11.27
2023-02-23T01:26:26.514Z,12.13
2023-02-23T01:28:54.851Z,12.77
2023-02-23T01:31:23.800Z,12.95
2023-02-23T01:34:00.031Z,13.17
2023-02-23T01:36:29.021Z,12.68
2023-02-23T01:38:57.154Z,13.10
2023-02-23T01:41:27.610Z,11.98
2023-02-23T01:44:04.128Z,12.43
2023-02-23T01:46:45.138Z,14.05
2023-02-23T01:49:31.407Z,13.77
2023-02-23T01:52:00.903Z,13.63
2023-02-23T01:54:31.296Z,12.77
2023-02-23T01:57:00.692Z,12.43
2023-02-23T01:59:30.746Z,14.00
2023-02-23T02:01:58.112Z,14.07
2023-02-23T02:04:25.993Z,14.07
2023-02-23T02:06:55.383Z,12.93
2023-02-23T02:09:28.222Z,16.13
2023-02-23T02:11:55.339Z,12.93
2023-02-23T02:14:24.475Z,14.27
2023-02-23T02:17:10.272Z,13.63
2023-02-23T02:19:56.250Z,13.60
2023-02-23T02:22:42.126Z,13.93
2023-02-23T02:25:28.019Z,13.00
2023-02-23T02:27:58.414Z,12.95
2023-02-23T02:30:34.571Z,14.00
2023-02-23T02:33:37.909Z,14.40
2023-02-23T02:36:20.115Z,13.80
2023-02-23T02:38:55.981Z,14.13
2023-02-23T02:41:42.496Z,15.32
2023-02-23T02:44:16.588Z,13.65
2023-02-23T02:46:48.022Z,13.75
2023-02-23T02:49:17.809Z,14.38
2023-02-23T02:51:52.840Z,14.30
2023-02-23T02:54:36.919Z,13.60
2023-02-23T02:57:04.584Z,14.63
2023-02-23T02:59:50.474Z,13.13
2023-02-23T03:02:37.934Z,14.05
2023-02-23T03:05:43.672Z,14.40
2023-02-23T03:08:41.358Z,13.32
2023-02-23T03:11:31.242Z,13.90
2023-02-23T03:17:02.808Z,13.63
2023-02-23T03:19:50.958Z,13.23
2023-02-23T03:22:49.255Z,15.98
2023-02-23T03:25:43.295Z,15.15
2023-02-23T03:28:40.112Z,16.05
2023-02-23T03:31:42.442Z,15.93
2023-02-23T03:34:28.308Z,16.85
2023-02-23T03:37:36.704Z,17.20
2023-02-23T03:40:25.707Z,17.02
2023-02-23T03:43:13.372Z,17.73
2023-02-23T03:45:59.794Z,18.70
2023-02-23T03:48:49.341Z,17.38
2023-02-23T03:51:36.527Z,15.80
2023-02-23T03:54:29.606Z,16.20
2023-02-23T03:57:17.004Z,17.08
2023-02-23T04:00:08.560Z,18.33
2023-02-23T04:02:55.047Z,15.73
2023-02-23T04:05:42.739Z,17.33
2023-02-23T04:08:31.351Z,16.08
2023-02-23T04:11:26.672Z,17.48
2023-02-23T04:13:59.442Z,15.50
2023-02-23T04:16:26.825Z,16.60
2023-02-23T04:18:58.601Z,17.25
2023-02-23T04:21:26.042Z,15.65
2023-02-23T04:23:53.131Z,16.58
2023-02-23T04:26:20.182Z,16.55
2023-02-23T04:28:49.814Z,15.93
2023-02-23T04:31:18.921Z,16.77
2023-02-23T04:33:46.244Z,15.48
2023-02-23T04:36:13.367Z,15.25
2023-02-23T04:38:42.737Z,17.50
2023-02-23T04:41:10.202Z,16.02
2023-02-23T04:43:37.319Z,17.83
2023-02-23T04:46:04.486Z,16.88
2023-02-23T04:48:31.580Z,17.35
2023-02-23T04:50:58.767Z,18.67
2023-02-23T04:53:28.411Z,16.05
2023-02-23T04:55:57.753Z,17.90
2023-02-23T04:58:24.844Z,16.95
2023-02-23T05:00:51.950Z,18.00
2023-02-23T05:03:19.077Z,17.63
2023-02-23T05:05:46.158Z,17.55
2023-02-23T05:08:13.256Z,17.67
2023-02-23T05:10:40.572Z,16.23
2023-02-23T05:13:07.904Z,16.73
2023-02-23T05:15:34.996Z,18.30
2023-02-23T05:18:02.129Z,19.85
2023-02-23T05:20:29.238Z,20.52
2023-02-23T05:22:56.283Z,19.35
2023-02-23T05:25:23.436Z,20.63
2023-02-23T05:27:52.719Z,20.55
2023-02-23T05:30:19.794Z,22.73
2023-02-23T05:32:46.863Z,22.42
2023-02-23T05:35:13.948Z,22.30
2023-02-23T05:37:41.094Z,22.65
2023-02-23T05:40:11.152Z,21.77
2023-02-23T05:42:38.761Z,24.83
2023-02-23T05:45:06.088Z,21.27
2023-02-23T05:47:38.627Z,22.33
2023-02-23T05:50:06.732Z,22.65
2023-02-23T05:52:33.811Z,23.30
2023-02-23T05:55:03.127Z,24.15
2023-02-23T05:57:32.739Z,26.42
2023-02-23T05:59:59.818Z,27.33
2023-02-23T06:02:27.392Z,26.65
2023-02-23T06:04:56.739Z,25.90
2023-02-23T06:07:23.822Z,26.80
2023-02-23T06:09:50.867Z,25.77
2023-02-23T06:12:18.128Z,25.15
2023-02-23T06:14:47.862Z,25.67
2023-02-23T06:17:14.930Z,26.58
2023-02-23T06:19:44.292Z,29.42
2023-02-23T06:22:11.363Z,23.50
2023-02-23T06:24:38.631Z,30.60
2023-02-23T06:27:05.776Z,24.45
2023-02-23T06:29:32.908Z,23.67
2023-02-23T06:32:01.137Z,29.10
2023-02-23T06:34:28.373Z,24.23
2023-02-23T06:36:55.517Z,23.30
2023-02-23T06:39:22.586Z,23.92
2023-02-23T06:41:51.896Z,26.17
2023-02-23T06:44:18.983Z,23.80
2023-02-23T06:46:46.154Z,23.92
2023-02-23T06:49:16.686Z,22.25
2023-02-23T06:51:43.858Z,23.33
2023-02-23T06:54:13.440Z,22.40
2023-02-23T06:56:40.486Z,23.00
2023-02-23T06:59:07.545Z,21.90
2023-02-23T07:01:34.655Z,23.65
2023-02-23T07:04:01.840Z,20.67
2023-02-23T07:06:29.089Z,22.10
2023-02-23T07:08:58.125Z,20.42
2023-02-23T07:11:25.198Z,19.77
2023-02-23T07:13:55.917Z,19.48
2023-02-23T07:16:23.886Z,20.35
2023-02-23T07:18:50.951Z,18.88
2023-02-23T07:21:18.497Z,19.65
2023-02-23T07:23:49.884Z,19.80
2023-02-23T07:26:18.402Z,19.75
2023-02-23T07:28:45.465Z,18.77
2023-02-23T07:31:12.553Z,18.60
2023-02-23T07:33:39.676Z,18.98
2023-02-23T07:36:09.089Z,20.17
2023-02-23T07:38:36.596Z,19.35
2023-02-23T07:41:04.435Z,20.98
2023-02-23T07:43:31.991Z,18.80
2023-02-23T07:46:02.437Z,17.67
2023-02-23T07:48:29.529Z,18.75
2023-02-23T07:50:56.592Z,18.40
2023-02-23T07:53:25.424Z,18.38
2023-02-23T07:55:58.958Z,19.55
2023-02-23T07:58:27.640Z,20.02
2023-02-23T08:00:55.118Z,16.73
2023-02-23T08:03:22.314Z,18.05
2023-02-23T08:05:49.412Z,19.70
2023-02-23T08:08:16.571Z,18.52
2023-02-23T08:10:43.664Z,17.73
2023-02-23T08:13:10.727Z,17.92
2023-02-23T08:15:37.816Z,17.95
2023-02-23T08:18:05.229Z,17.45
2023-02-23T08:20:32.388Z,17.10
2023-02-23T08:22:59.790Z,17.08
2023-02-23T08:25:30.436Z,17.10
2023-02-23T08:28:04.748Z,16.33
2023-02-23T08:30:32.145Z,20.45
2023-02-23T08:33:01.849Z,18.38
2023-02-23T08:35:31.043Z,20.58
2023-02-23T08:37:58.925Z,17.98
2023-02-23T08:40:26.028Z,18.15
2023-02-23T08:42:55.347Z,18.65
2023-02-23T08:45:22.471Z,18.80
2023-02-23T08:47:49.610Z,20.20
2023-02-23T08:50:16.710Z,18.27
2023-02-23T08:52:43.811Z,17.88
2023-02-23T08:55:11.772Z,18.50
2023-02-23T08:57:39.315Z,17.95
2023-02-23T09:00:13.994Z,19.13
2023-02-23T09:02:41.956Z,19.08
2023-02-23T09:05:12.348Z,19.88
2023-02-23T09:07:40.297Z,18.80
2023-02-23T09:10:07.774Z,19.50
2023-02-23T09:12:34.939Z,19.48
2023-02-23T09:15:02.363Z,17.85
2023-02-23T09:17:29.490Z,19.55
2023-02-23T09:19:56.579Z,18.92
2023-02-23T09:22:23.666Z,18.67
2023-02-23T09:24:50.741Z,18.60
2023-02-23T09:27:20.057Z,18.35
2023-02-23T09:29:47.218Z,18.45
2023-02-23T09:32:14.333Z,18.38
2023-02-23T09:34:45.074Z,19.83
2023-02-23T09:37:12.153Z,18.15
2023-02-23T09:39:39.393Z,17.55
2023-02-23T09:42:08.254Z,19.85
2023-02-23T09:44:54.850Z,18.23
2023-02-23T09:47:30.526Z,18.20
2023-02-23T09:50:00.953Z,17.17
2023-02-23T09:52:31.145Z,18.65
2023-02-23T09:54:58.966Z,17.50
2023-02-23T09:57:38.651Z,16.92
2023-02-23T10:00:15.394Z,18.33
2023-02-23T10:03:05.910Z,18.25
2023-02-23T10:05:38.071Z,15.77
2023-02-23T10:08:09.291Z,18.13
2023-02-23T10:10:45.548Z,16.83
2023-02-23T10:13:31.735Z,15.00
2023-02-23T10:16:02.269Z,16.75
2023-02-23T10:18:45.255Z,17.80
2023-02-23T10:21:13.449Z,16.05
2023-02-23T10:23:43.532Z,16.15
2023-02-23T10:26:16.154Z,15.52
2023-02-23T10:28:44.543Z,15.47
2023-02-23T10:31:35.587Z,14.98
2023-02-23T10:34:06.941Z,16.63
2023-02-23T10:36:43.349Z,15.70
2023-02-23T10:39:12.709Z,15.65
2023-02-23T10:41:40.132Z,14.32
2023-02-23T10:44:17.026Z,14.30
2023-02-23T10:46:44.814Z,13.48
2023-02-23T10:49:18.954Z,15.23
2023-02-23T10:51:46.216Z,15.68
2023-02-23T10:54:31.980Z,13.93
2023-02-23T10:56:59.682Z,14.38
2023-02-23T10:59:27.557Z,12.82
2023-02-23T11:02:01.749Z,12.93
2023-02-23T11:04:34.732Z,14.57
2023-02-23T11:07:08.328Z,13.43
2023-02-23T11:09:49.622Z,12.98
2023-02-23T11:12:16.779Z,13.48
2023-02-23T11:14:46.359Z,12.63
2023-02-23T11:17:28.760Z,13.35
2023-02-23T11:20:22.078Z,13.40
2023-02-23T11:22:49.232Z,12.73
2023-02-23T11:25:26.311Z,11.70
2023-02-23T11:27:57.019Z,13.43
2023-02-23T11:30:28.774Z,11.85
2023-02-23T11:32:58.298Z,12.30
2023-02-23T11:35:27.042Z,13.90
2023-02-23T11:37:54.655Z,11.45
2023-02-23T11:40:27.341Z,11.82
2023-02-23T11:43:11.496Z,12.88
2023-02-23T11:45:42.017Z,13.30
2023-02-23T11:48:20.071Z,11.80
2023-02-23T11:50:50.332Z,12.70
2023-02-23T11:53:19.280Z,11.05
2023-02-23T11:55:54.789Z,11.27
2023-02-23T11:58:27.652Z,11.32
2023-02-23T12:00:57.952Z,10.80
2023-02-23T12:03:26.067Z,12.02
2023-02-23T12:05:57.559Z,10.68
2023-02-23T12:08:33.519Z,11.20
2023-02-23T12:11:03.167Z,12.10
2023-02-23T12:13:30.289Z,11.05
2023-02-23T12:16:03.626Z,11.43
2023-02-23T12:18:40.017Z,11.75
2023-02-23T12:21:19.195Z,11.68
2023-02-23T12:23:49.936Z,11.98
2023-02-23T12:26:21.474Z,12.00
2023-02-23T12:28:54.589Z,12.07
2023-02-23T12:31:28.281Z,11.10
2023-02-23T12:34:03.771Z,11.50
2023-02-23T12:36:44.312Z,11.73
2023-02-23T12:39:23.840Z,11.80
2023-02-23T12:42:09.639Z,11.25
2023-02-23T12:44:39.816Z,11.85
2023-02-23T12:47:32.950Z,10.30
2023-02-23T12:50:13.136Z,11.85
2023-02-23T12:52:47.606Z,12.63
2023-02-23T12:55:15.055Z,12.77
2023-02-23T12:57:48.051Z,11.88
2023-02-23T13:00:25.195Z,10.63
2023-02-23T13:03:11.309Z,12.35
2023-02-23T13:06:01.689Z,11.98
2023-02-23T13:08:47.147Z,11.45
2023-02-23T13:11:22.345Z,12.90
2023-02-23T13:14:03.785Z,13.05
2023-02-23T13:16:33.656Z,12.07
2023-02-23T13:21:41.246Z,12.70
2023-02-23T13:24:40.717Z,12.10
2023-02-23T13:27:18.250Z,11.02
2023-02-23T13:29:49.554Z,11.02
2023-02-23T13:32:20.974Z,11.35
2023-02-23T13:34:57.094Z,11.25
2023-02-23T13:37:43.101Z,12.45
2023-02-23T13:40:10.281Z,14.65
2023-02-23T13:42:43.624Z,20.52
2023-02-23T13:45:29.443Z,20.75
2023-02-23T13:47:59.654Z,21.65
2023-02-23T13:50:32.357Z,25.40
2023-02-23T13:53:04.677Z,23.40
2023-02-23T13:55:48.750Z,24.75
2023-02-23T13:58:18.457Z,22.75
2023-02-23T14:00:52.983Z,21.70
2023-02-23T14:03:24.409Z,21.10
2023-02-23T14:05:56.631Z,21.33
2023-02-23T14:08:28.745Z,19.35
2023-02-23T14:10:57.318Z,18.52
2023-02-23T14:13:30.342Z,17.33
2023-02-23T14:16:16.381Z,14.65
2023-02-23T14:18:55.872Z,15.90
2023-02-23T14:21:25.723Z,14.38
2023-02-23T14:26:28.494Z,16.40
2023-02-23T14:29:11.040Z,15.10
2023-02-23T14:31:38.414Z,15.77
2023-02-23T14:34:09.738Z,16.67
2023-02-23T14:36:38.326Z,17.42
2023-02-23T14:39:09.827Z,16.30
2023-02-23T14:41:40.341Z,13.95
2023-02-23T14:44:29.462Z,15.88
2023-02-23T14:47:09.700Z,16.40
2023-02-23T14:49:40.631Z,16.05
2023-02-23T14:52:15.640Z,17.60
2023-02-23T14:54:42.750Z,16.85
2023-02-23T14:57:25.885Z,17.42
2023-02-23T15:00:06.354Z,17.27
2023-02-23T15:02:43.163Z,18.13
2023-02-23T15:05:23.631Z,17.83
2023-02-23T15:07:51.946Z,18.75
2023-02-23T15:10:22.612Z,18.08
2023-02-23T15:12:50.991Z,19.08
2023-02-23T15:15:25.308Z,19.23
2023-02-23T15:17:56.840Z,18.90
2023-02-23T15:20:28.702Z,21.73
2023-02-23T15:22:57.545Z,21.27
2023-02-23T15:25:26.236Z,19.13
2023-02-23T15:27:55.909Z,19.10
2023-02-23T15:30:29.352Z,19.58
2023-02-23T15:33:13.042Z,17.95
2023-02-23T15:35:45.041Z,17.17
2023-02-23T15:38:40.366Z,17.15
2023-02-23T15:41:06.734Z,16.92
2023-02-23T15:43:39.590Z,17.50
2023-02-23T15:46:09.489Z,18.15
2023-02-23T15:51:06.920Z,18.35
2023-02-23T15:53:37.945Z,16.83
2023-02-23T15:56:14.185Z,17.45
2023-02-23T15:58:56.048Z,16.42
2023-02-23T16:01:28.405Z,18.02
2023-02-23T16:04:00.880Z,15.65
2023-02-23T16:06:35.793Z,15.73
2023-02-23T16:09:21.213Z,16.02
2023-02-23T16:11:53.174Z,14.82
2023-02-23T16:14:21.586Z,16.80
2023-02-23T16:17:08.416Z,14.52
2023-02-23T16:19:41.068Z,15.40
2023-02-23T16:22:15.282Z,16.33
2023-02-23T16:24:42.410Z,15.18
2023-02-23T16:27:12.710Z,14.68
2023-02-23T16:29:41.825Z,14.88
2023-02-23T16:32:17.963Z,14.73
2023-02-23T16:34:55.568Z,13.05
2023-02-23T16:37:26.116Z,13.52
2023-02-23T16:39:53.748Z,13.77
2023-02-23T16:42:24.026Z,12.88
2023-02-23T16:44:51.364Z,13.00
2023-02-23T16:47:24.367Z,13.57
2023-02-23T16:49:52.080Z,13.93
2023-02-23T16:52:23.690Z,14.25
2023-02-23T16:54:54.490Z,12.85
2023-02-23T16:57:26.196Z,13.25
2023-02-23T16:59:54.028Z,13.10
2023-02-23T17:02:23.862Z,13.65
2023-02-23T17:07:21.868Z,12.32
2023-02-23T17:09:50.206Z,12.65
2023-02-23T17:12:21.651Z,13.40
2023-02-23T17:14:49.588Z,13.38
2023-02-23T17:17:17.523Z,14.43
2023-02-23T17:19:45.435Z,14.43
2023-02-23T17:22:12.905Z,13.55
2023-02-23T17:24:40.461Z,13.98
2023-02-23T17:27:07.613Z,13.57
2023-02-23T17:29:35.009Z,14.48
2023-02-23T17:32:04.580Z,15.02
2023-02-23T17:34:31.842Z,13.52
2023-02-23T17:37:01.454Z,13.63
2023-02-23T17:39:28.565Z,15.80
2023-02-23T17:41:55.980Z,14.02
2023-02-23T17:44:23.280Z,15.27
2023-02-23T17:46:52.742Z,14.63
2023-02-23T17:49:19.872Z,14.43
2023-02-23T17:51:49.567Z,15.13
2023-02-23T17:54:16.696Z,14.13
2023-02-23T17:56:46.394Z,13.10
2023-02-23T17:59:13.197Z,14.00
2023-02-23T18:01:42.320Z,13.80
2023-02-23T18:04:11.614Z,14.10
2023-02-23T18:06:40.494Z,12.93
2023-02-23T18:09:08.228Z,15.27
2023-02-23T18:11:35.438Z,13.93
2023-02-23T18:14:02.286Z,14.75
2023-02-23T18:16:33.276Z,13.95
2023-02-23T18:19:00.034Z,15.88
2023-02-23T18:21:27.535Z,18.05
2023-02-23T18:23:54.838Z,16.02
2023-02-23T18:26:23.880Z,16.83
2023-02-23T18:28:51.337Z,16.53
2023-02-23T18:31:23.924Z,16.60
2023-02-23T18:33:52.923Z,19.58
2023-02-23T18:36:28.011Z,19.88
2023-02-23T18:38:55.728Z,20.48
2023-02-23T18:41:23.014Z,18.60
2023-02-23T18:43:50.129Z,18.17
2023-02-23T18:46:17.626Z,19.92
2023-02-23T18:48:44.870Z,20.40
2023-02-23T18:51:14.682Z,19.42
2023-02-23T18:53:42.421Z,22.40
2023-02-23T18:56:12.437Z,20.40
2023-02-23T18:58:39.820Z,19.50
2023-02-23T19:01:18.046Z,20.83
2023-02-23T19:03:45.675Z,20.15
2023-02-23T19:06:14.058Z,20.05
2023-02-23T19:08:41.908Z,20.35
2023-02-23T19:11:09.447Z,17.85
2023-02-23T19:13:38.074Z,19.27
2023-02-23T19:16:09.428Z,17.35
2023-02-23T19:18:39.564Z,18.88
2023-02-23T19:21:06.970Z,18.02
2023-02-23T19:23:36.354Z,17.77
2023-02-23T19:26:05.525Z,17.50
2023-02-23T19:28:32.935Z,17.10
2023-02-23T19:31:09.959Z,16.30
2023-02-23T19:33:40.888Z,15.40
2023-02-23T19:36:09.154Z,16.55
2023-02-23T19:38:36.396Z,16.75
2023-02-23T19:41:07.251Z,15.18
2023-02-23T19:43:34.390Z,15.90
2023-02-23T19:46:05.272Z,16.33
2023-02-23T19:48:32.731Z,15.10
2023-02-23T19:51:00.326Z,14.63
2023-02-23T19:53:28.166Z,17.40
2023-02-23T19:56:02.085Z,15.80
2023-02-23T19:58:29.341Z,16.90
2023-02-23T20:00:59.473Z,15.73
2023-02-23T20:03:29.081Z,16.60
2023-02-23T20:05:56.987Z,16.67
2023-02-23T20:08:27.100Z,17.13
2023-02-23T20:10:54.421Z,15.73
2023-02-23T20:13:23.338Z,15.40
2023-02-23T20:15:51.404Z,15.88
2023-02-23T20:18:22.531Z,15.68
2023-02-23T20:20:49.673Z,15.63
2023-02-23T20:23:19.045Z,14.93
2023-02-23T20:25:48.458Z,14.73
2023-02-23T20:28:15.621Z,15.82
2023-02-23T20:30:46.770Z,15.68
2023-02-23T20:33:16.216Z,15.25
2023-02-23T20:35:45.937Z,15.75
2023-02-23T20:38:14.141Z,14.13
2023-02-23T20:40:41.507Z,14.82
2023-02-23T20:43:08.622Z,14.98
2023-02-23T20:45:41.235Z,14.32
2023-02-23T20:48:09.651Z,14.00
2023-02-23T20:50:39.314Z,14.82
2023-02-23T20:53:09.057Z,14.23
2023-02-23T20:55:36.166Z,15.82
2023-02-23T20:58:04.730Z,15.25
2023-02-23T21:00:32.158Z,14.43
2023-02-23T21:03:00.265Z,14.93
2023-02-23T21:05:28.272Z,17.05
2023-02-23T21:07:58.816Z,15.65
2023-02-23T21:10:26.100Z,14.98
2023-02-23T21:12:55.936Z,14.52
2023-02-23T21:15:25.383Z,15.07
2023-02-23T21:17:52.747Z,14.73
2023-02-23T21:20:21.083Z,13.98
2023-02-23T21:22:51.084Z,14.77
2023-02-23T21:27:47.230Z,14.80
2023-02-23T21:30:21.561Z,16.25
2023-02-23T21:32:55.574Z,15.13
2023-02-23T21:35:22.743Z,14.48
2023-02-23T21:37:52.838Z,15.80
2023-02-23T21:40:23.284Z,15.45
2023-02-23T21:42:50.947Z,16.23
2023-02-23T21:45:21.280Z,15.20
2023-02-23T21:47:48.878Z,15.35
2023-02-23T21:50:20.005Z,16.10
2023-02-23T21:52:48.679Z,15.32
2023-02-23T21:55:21.577Z,16.85
2023-02-23T21:57:49.494Z,14.65
2023-02-23T22:00:20.923Z,17.38
2023-02-23T22:02:48.607Z,17.08
2023-02-23T22:05:17.078Z,14.85
2023-02-23T22:07:51.107Z,14.40
2023-02-23T22:10:19.579Z,15.10
2023-02-23T22:12:46.809Z,14.65
2023-02-23T22:15:16.874Z,16.05
2023-02-23T22:17:44.325Z,15.95
2023-02-23T22:20:14.596Z,15.20
2023-02-23T22:25:11.469Z,13.95
2023-02-23T22:27:41.472Z,15.95
2023-02-23T22:30:09.432Z,15.07
2023-02-23T22:32:36.715Z,13.77
2023-02-23T22:35:07.209Z,16.08
2023-02-23T22:37:36.676Z,15.82
2023-02-23T22:40:16.652Z,16.92
2023-02-23T22:42:50.497Z,17.60
2023-02-23T22:45:18.797Z,16.95
2023-02-23T22:47:50.360Z,14.73
2023-02-23T22:50:19.234Z,15.63
2023-02-23T22:52:49.056Z,17.20
2023-02-23T22:55:16.219Z,16.92
2023-02-23T22:57:43.925Z,16.75
2023-02-23T23:00:11.502Z,16.60
2023-02-23T23:02:41.134Z,16.17
2023-02-23T23:05:08.858Z,16.55
2023-02-23T23:07:36.011Z,16.05
2023-02-23T23:10:05.728Z,16.17
2023-02-23T23:12:34.376Z,17.83
2023-02-23T23:15:07.134Z,16.67
2023-02-23T23:17:34.264Z,16.27
2023-02-23T23:20:00.953Z,16.20
2023-02-23T23:22:28.023Z,15.07
2023-02-23T23:24:56.972Z,15.90
2023-02-23T23:27:24.796Z,14.93
2023-02-23T23:29:55.400Z,17.25
2023-02-23T23:32:27.479Z,16.38
2023-02-23T23:34:57.296Z,16.83
2023-02-23T23:37:28.945Z,16.00
2023-02-23T23:39:59.301Z,14.98
2023-02-23T23:42:29.258Z,13.18
2023-02-23T23:47:27.199Z,13.20
2023-02-23T23:49:54.629Z,10.98
2023-02-23T23:52:25.213Z,13.20
2023-02-23T23:54:52.297Z,11.70
2023-02-23T23:57:21.616Z,12.10
2023-02-23T23:59:48.906Z,11.68
